sensor_id;sensor_type;location;lat;lon;timestamp;P1;durP1;ratioP1;P2;durP2;ratioP2
18445;SDS011;9352;50.888;4.466;2023-02-22T00:00:13;153.77;;;25.33;;
18445;SDS011;9352;50.888;4.466;2023-02-22T00:02:47;100.50;;;25.43;;
18445;SDS011;9352;50.888;4.466;2023-02-22T00:05:14;168.43;;;26.10;;
18445;SDS011;9352;50.888;4.466;2023-02-22T00:07:44;151.57;;;25.20;;
18445;SDS011;9352;50.888;4.466;2023-02-22T00:10:13;113.93;;;24.90;;
18445;SDS011;9352;50.888;4.466;2023-02-22T00:12:44;257.10;;;28.07;;
18445;SDS011;9352;50.888;4.466;2023-02-22T00:15:12;125.83;;;26.57;;
18445;SDS011;9352;50.888;4.466;2023-02-22T00:17:40;123.30;;;25.20;;
18445;SDS011;9352;50.888;4.466;2023-02-22T00:20:11;91.03;;;25.17;;
18445;SDS011;9352;50.888;4.466;2023-02-22T00:22:39;174.20;;;26.53;;
18445;SDS011;9352;50.888;4.466;2023-02-22T00:25:08;140.07;;;26.73;;
18445;SDS011;9352;50.888;4.466;2023-02-22T00:27:35;153.00;;;25.90;;
18445;SDS011;9352;50.888;4.466;2023-02-22T00:30:02;115.18;;;24.83;;
18445;SDS011;9352;50.888;4.466;2023-02-22T00:32:30;114.15;;;24.23;;
18445;SDS011;9352;50.888;4.466;2023-02-22T00:34:57;138.02;;;25.95;;
18445;SDS011;9352;50.888;4.466;2023-02-22T00:37:24;383.67;;;28.95;;
18445;SDS011;9352;50.888;4.466;2023-02-22T00:39:55;231.85;;;26.48;;
18445;SDS011;9352;50.888;4.466;2023-02-22T00:42:23;148.48;;;25.08;;
18445;SDS011;9352;50.888;4.466;2023-02-22T00:44:50;150.27;;;25.85;;
18445;SDS011;9352;50.888;4.466;2023-02-22T00:47:17;137.15;;;24.98;;
18445;SDS011;9352;50.888;4.466;2023-02-22T00:49:44;158.50;;;25.43;;
18445;SDS011;9352;50.888;4.466;2023-02-22T00:52:11;129.65;;;25.48;;
18445;SDS011;9352;50.888;4.466;2023-02-22T00:54:38;276.73;;;26.37;;
18445;SDS011;9352;50.888;4.466;2023-02-22T00:57:05;163.98;;;25.38;;
18445;SDS011;9352;50.888;4.466;2023-02-22T00:59:33;276.37;;;26.13;;
18445;SDS011;9352;50.888;4.466;2023-02-22T01:02:00;192.00;;;24.90;;
18445;SDS011;9352;50.888;4.466;2023-02-22T01:04:27;212.93;;;25.63;;
18445;SDS011;9352;50.888;4.466;2023-02-22T01:06:54;96.53;;;23.45;;
18445;SDS011;9352;50.888;4.466;2023-02-22T01:09:21;163.80;;;25.73;;
18445;SDS011;9352;50.888;4.466;2023-02-22T01:11:51;251.23;;;25.20;;
18445;SDS011;9352;50.888;4.466;2023-02-22T01:14:20;210.48;;;25.55;;
18445;SDS011;9352;50.888;4.466;2023-02-22T01:16:49;197.30;;;25.30;;
18445;SDS011;9352;50.888;4.466;2023-02-22T01:19:16;187.32;;;24.65;;
18445;SDS011;9352;50.888;4.466;2023-02-22T01:21:43;204.05;;;24.75;;
18445;SDS011;9352;50.888;4.466;2023-02-22T01:24:11;154.27;;;24.00;;
18445;SDS011;9352;50.888;4.466;2023-02-22T01:26:40;125.00;;;22.73;;
18445;SDS011;9352;50.888;4.466;2023-02-22T01:29:07;158.87;;;23.67;;
18445;SDS011;9352;50.888;4.466;2023-02-22T01:31:38;139.97;;;23.17;;
18445;SDS011;9352;50.888;4.466;2023-02-22T01:34:06;178.67;;;23.63;;
18445;SDS011;9352;50.888;4.466;2023-02-22T01:36:33;145.83;;;24.00;;
18445;SDS011;9352;50.888;4.466;2023-02-22T01:39:00;166.10;;;24.70;;
18445;SDS011;9352;50.888;4.466;2023-02-22T01:41:27;181.60;;;24.43;;
18445;SDS011;9352;50.888;4.466;2023-02-22T01:43:53;165.73;;;24.70;;
18445;SDS011;9352;50.888;4.466;2023-02-22T01:46:21;150.13;;;22.77;;
18445;SDS011;9352;50.888;4.466;2023-02-22T01:48:50;128.17;;;22.57;;
18445;SDS011;9352;50.888;4.466;2023-02-22T01:51:23;96.63;;;21.00;;
18445;SDS011;9352;50.888;4.466;2023-02-22T01:53:54;102.33;;;21.87;;
18445;SDS011;9352;50.888;4.466;2023-02-22T01:56:25;109.63;;;23.23;;
18445;SDS011;9352;50.888;4.466;2023-02-22T01:58:56;94.90;;;22.43;;
18445;SDS011;9352;50.888;4.466;2023-02-22T02:01:26;172.57;;;23.17;;
18445;SDS011;9352;50.888;4.466;2023-02-22T02:03:55;84.77;;;23.57;;
18445;SDS011;9352;50.888;4.466;2023-02-22T02:06:26;166.00;;;23.63;;
18445;SDS011;9352;50.888;4.466;2023-02-22T02:08:58;106.72;;;21.85;;
18445;SDS011;9352;50.888;4.466;2023-02-22T02:11:30;125.27;;;20.93;;
18445;SDS011;9352;50.888;4.466;2023-02-22T02:13:58;82.00;;;20.47;;
18445;SDS011;9352;50.888;4.466;2023-02-22T02:16:30;78.73;;;21.33;;
18445;SDS011;9352;50.888;4.466;2023-02-22T02:19:02;50.80;;;19.70;;
18445;SDS011;9352;50.888;4.466;2023-02-22T02:24:34;81.67;;;20.10;;
18445;SDS011;9352;50.888;4.466;2023-02-22T02:27:24;58.97;;;19.30;;
18445;SDS011;9352;50.888;4.466;2023-02-22T02:30:21;70.23;;;20.17;;
18445;SDS011;9352;50.888;4.466;2023-02-22T02:33:21;67.60;;;18.80;;
18445;SDS011;9352;50.888;4.466;2023-02-22T02:35:55;55.67;;;19.20;;
18445;SDS011;9352;50.888;4.466;2023-02-22T02:38:30;44.80;;;19.83;;
18445;SDS011;9352;50.888;4.466;2023-02-22T02:41:02;47.70;;;19.00;;
18445;SDS011;9352;50.888;4.466;2023-02-22T02:43:35;54.80;;;18.30;;
18445;SDS011;9352;50.888;4.466;2023-02-22T02:46:08;45.67;;;18.70;;
18445;SDS011;9352;50.888;4.466;2023-02-22T02:48:40;46.37;;;18.73;;
18445;SDS011;9352;50.888;4.466;2023-02-22T02:51:13;52.83;;;18.67;;
18445;SDS011;9352;50.888;4.466;2023-02-22T02:53:43;49.83;;;19.33;;
18445;SDS011;9352;50.888;4.466;2023-02-22T02:56:11;49.07;;;17.97;;
18445;SDS011;9352;50.888;4.466;2023-02-22T02:58:43;43.50;;;18.77;;
18445;SDS011;9352;50.888;4.466;2023-02-22T03:01:13;44.77;;;19.13;;
18445;SDS011;9352;50.888;4.466;2023-02-22T03:03:50;44.07;;;18.60;;
18445;SDS011;9352;50.888;4.466;2023-02-22T03:07:02;37.50;;;17.47;;
18445;SDS011;9352;50.888;4.466;2023-02-22T03:09:49;39.77;;;17.10;;
18445;SDS011;9352;50.888;4.466;2023-02-22T03:12:26;37.20;;;16.57;;
18445;SDS011;9352;50.888;4.466;2023-02-22T03:15:05;41.77;;;17.27;;
18445;SDS011;9352;50.888;4.466;2023-02-22T03:17:40;36.17;;;16.27;;
18445;SDS011;9352;50.888;4.466;2023-02-22T03:20:16;38.40;;;16.03;;
18445;SDS011;9352;50.888;4.466;2023-02-22T03:22:49;35.37;;;16.07;;
18445;SDS011;9352;50.888;4.466;2023-02-22T03:25:23;37.27;;;16.47;;
18445;SDS011;9352;50.888;4.466;2023-02-22T03:27:56;39.50;;;16.00;;
18445;SDS011;9352;50.888;4.466;2023-02-22T03:30:29;36.33;;;16.50;;
18445;SDS011;9352;50.888;4.466;2023-02-22T03:33:00;37.80;;;16.10;;
18445;SDS011;9352;50.888;4.466;2023-02-22T03:35:34;33.77;;;14.93;;
18445;SDS011;9352;50.888;4.466;2023-02-22T03:38:04;36.60;;;15.67;;
18445;SDS011;9352;50.888;4.466;2023-02-22T03:40:35;32.40;;;15.27;;
18445;SDS011;9352;50.888;4.466;2023-02-22T03:43:08;33.17;;;15.23;;
18445;SDS011;9352;50.888;4.466;2023-02-22T03:45:39;35.23;;;15.70;;
18445;SDS011;9352;50.888;4.466;2023-02-22T03:48:10;38.00;;;16.30;;
18445;SDS011;9352;50.888;4.466;2023-02-22T03:50:45;33.20;;;15.77;;
18445;SDS011;9352;50.888;4.466;2023-02-22T03:53:13;32.97;;;15.27;;
18445;SDS011;9352;50.888;4.466;2023-02-22T03:55:42;34.97;;;16.03;;
18445;SDS011;9352;50.888;4.466;2023-02-22T03:58:10;32.47;;;15.03;;
18445;SDS011;9352;50.888;4.466;2023-02-22T04:00:38;31.17;;;15.77;;
18445;SDS011;9352;50.888;4.466;2023-02-22T04:03:08;31.43;;;15.10;;
18445;SDS011;9352;50.888;4.466;2023-02-22T04:05:36;34.13;;;15.57;;
18445;SDS011;9352;50.888;4.466;2023-02-22T04:08:04;32.37;;;15.73;;
18445;SDS011;9352;50.888;4.466;2023-02-22T04:10:31;30.53;;;14.77;;
18445;SDS011;9352;50.888;4.466;2023-02-22T04:12:58;29.38;;;14.60;;
18445;SDS011;9352;50.888;4.466;2023-02-22T04:15:25;33.17;;;14.83;;
18445;SDS011;9352;50.888;4.466;2023-02-22T04:17:53;33.50;;;14.97;;
18445;SDS011;9352;50.888;4.466;2023-02-22T04:20:21;35.10;;;14.80;;
18445;SDS011;9352;50.888;4.466;2023-02-22T04:22:49;34.40;;;15.80;;
18445;SDS011;9352;50.888;4.466;2023-02-22T04:25:19;30.03;;;14.80;;
18445;SDS011;9352;50.888;4.466;2023-02-22T04:27:47;28.60;;;14.17;;
18445;SDS011;9352;50.888;4.466;2023-02-22T04:30:15;28.93;;;14.47;;
18445;SDS011;9352;50.888;4.466;2023-02-22T04:32:43;31.63;;;14.13;;
18445;SDS011;9352;50.888;4.466;2023-02-22T04:35:10;30.63;;;14.50;;
18445;SDS011;9352;50.888;4.466;2023-02-22T04:37:37;36.63;;;13.80;;
18445;SDS011;9352;50.888;4.466;2023-02-22T04:40:05;27.60;;;14.23;;
18445;SDS011;9352;50.888;4.466;2023-02-22T04:42:34;26.60;;;13.33;;
18445;SDS011;9352;50.888;4.466;2023-02-22T04:45:02;28.38;;;13.32;;
18445;SDS011;9352;50.888;4.466;2023-02-22T04:47:29;26.43;;;13.37;;
18445;SDS011;9352;50.888;4.466;2023-02-22T04:49:56;28.83;;;14.00;;
18445;SDS011;9352;50.888;4.466;2023-02-22T04:52:24;30.03;;;14.20;;
18445;SDS011;9352;50.888;4.466;2023-02-22T04:54:51;28.70;;;14.20;;
18445;SDS011;9352;50.888;4.466;2023-02-22T04:57:18;25.20;;;12.93;;
18445;SDS011;9352;50.888;4.466;2023-02-22T04:59:46;30.00;;;14.23;;
18445;SDS011;9352;50.888;4.466;2023-02-22T05:02:15;28.27;;;14.07;;
18445;SDS011;9352;50.888;4.466;2023-02-22T05:04:42;29.53;;;14.90;;
18445;SDS011;9352;50.888;4.466;2023-02-22T05:07:09;31.37;;;14.07;;
18445;SDS011;9352;50.888;4.466;2023-02-22T05:09:36;31.63;;;14.77;;
18445;SDS011;9352;50.888;4.466;2023-02-22T05:12:03;31.43;;;14.50;;
18445;SDS011;9352;50.888;4.466;2023-02-22T05:14:30;28.57;;;14.53;;
18445;SDS011;9352;50.888;4.466;2023-02-22T05:16:59;28.67;;;14.07;;
18445;SDS011;9352;50.888;4.466;2023-02-22T05:19:27;29.10;;;13.70;;
18445;SDS011;9352;50.888;4.466;2023-02-22T05:21:54;29.30;;;14.17;;
18445;SDS011;9352;50.888;4.466;2023-02-22T05:24:21;26.83;;;13.50;;
18445;SDS011;9352;50.888;4.466;2023-02-22T05:26:48;28.93;;;13.87;;
18445;SDS011;9352;50.888;4.466;2023-02-22T05:29:17;28.50;;;14.00;;
18445;SDS011;9352;50.888;4.466;2023-02-22T05:31:44;24.73;;;12.50;;
18445;SDS011;9352;50.888;4.466;2023-02-22T05:34:12;26.97;;;13.10;;
18445;SDS011;9352;50.888;4.466;2023-02-22T05:36:39;24.53;;;13.00;;
18445;SDS011;9352;50.888;4.466;2023-02-22T05:39:06;24.50;;;13.20;;
18445;SDS011;9352;50.888;4.466;2023-02-22T05:41:33;27.10;;;12.70;;
18445;SDS011;9352;50.888;4.466;2023-02-22T05:44:00;24.90;;;13.53;;
18445;SDS011;9352;50.888;4.466;2023-02-22T05:46:28;26.67;;;14.77;;
18445;SDS011;9352;50.888;4.466;2023-02-22T05:48:55;26.47;;;13.50;;
18445;SDS011;9352;50.888;4.466;2023-02-22T05:51:23;27.90;;;14.40;;
18445;SDS011;9352;50.888;4.466;2023-02-22T05:53:50;28.57;;;13.40;;
18445;SDS011;9352;50.888;4.466;2023-02-22T05:56:19;25.23;;;12.40;;
18445;SDS011;9352;50.888;4.466;2023-02-22T05:58:47;26.13;;;13.27;;
18445;SDS011;9352;50.888;4.466;2023-02-22T06:01:14;22.63;;;12.23;;
18445;SDS011;9352;50.888;4.466;2023-02-22T06:03:41;21.03;;;11.93;;
18445;SDS011;9352;50.888;4.466;2023-02-22T06:06:08;23.67;;;13.07;;
18445;SDS011;9352;50.888;4.466;2023-02-22T06:08:36;28.63;;;15.63;;
18445;SDS011;9352;50.888;4.466;2023-02-22T06:11:03;28.43;;;12.87;;
18445;SDS011;9352;50.888;4.466;2023-02-22T06:13:30;22.60;;;11.30;;
18445;SDS011;9352;50.888;4.466;2023-02-22T06:15:57;19.13;;;11.00;;
18445;SDS011;9352;50.888;4.466;2023-02-22T06:18:24;22.57;;;11.40;;
18445;SDS011;9352;50.888;4.466;2023-02-22T06:20:54;22.27;;;11.70;;
18445;SDS011;9352;50.888;4.466;2023-02-22T06:23:21;22.40;;;11.93;;
18445;SDS011;9352;50.888;4.466;2023-02-22T06:25:49;25.30;;;12.40;;
18445;SDS011;9352;50.888;4.466;2023-02-22T06:28:16;20.97;;;11.20;;
18445;SDS011;9352;50.888;4.466;2023-02-22T06:30:43;25.57;;;11.50;;
18445;SDS011;9352;50.888;4.466;2023-02-22T06:33:10;26.37;;;11.80;;
18445;SDS011;9352;50.888;4.466;2023-02-22T06:35:37;23.00;;;11.00;;
18445;SDS011;9352;50.888;4.466;2023-02-22T06:38:04;24.10;;;12.60;;
18445;SDS011;9352;50.888;4.466;2023-02-22T06:40:31;29.87;;;11.90;;
18445;SDS011;9352;50.888;4.466;2023-02-22T06:42:59;24.20;;;12.20;;
18445;SDS011;9352;50.888;4.466;2023-02-22T06:45:26;36.77;;;13.67;;
18445;SDS011;9352;50.888;4.466;2023-02-22T06:47:53;25.57;;;11.77;;
18445;SDS011;9352;50.888;4.466;2023-02-22T06:50:21;33.60;;;11.23;;
18445;SDS011;9352;50.888;4.466;2023-02-22T06:52:49;22.47;;;10.20;;
18445;SDS011;9352;50.888;4.466;2023-02-22T06:55:17;19.23;;;10.80;;
18445;SDS011;9352;50.888;4.466;2023-02-22T06:57:45;27.33;;;12.03;;
18445;SDS011;9352;50.888;4.466;2023-02-22T07:00:15;25.33;;;12.33;;
18445;SDS011;9352;50.888;4.466;2023-02-22T07:02:43;28.27;;;12.63;;
18445;SDS011;9352;50.888;4.466;2023-02-22T07:05:10;24.80;;;11.27;;
18445;SDS011;9352;50.888;4.466;2023-02-22T07:07:38;23.87;;;11.63;;
18445;SDS011;9352;50.888;4.466;2023-02-22T07:10:05;27.30;;;11.97;;
18445;SDS011;9352;50.888;4.466;2023-02-22T07:12:33;28.40;;;13.03;;
18445;SDS011;9352;50.888;4.466;2023-02-22T07:15:00;26.80;;;12.63;;
18445;SDS011;9352;50.888;4.466;2023-02-22T07:17:29;37.80;;;15.30;;
18445;SDS011;9352;50.888;4.466;2023-02-22T07:19:55;39.17;;;16.47;;
18445;SDS011;9352;50.888;4.466;2023-02-22T07:22:22;31.33;;;15.03;;
18445;SDS011;9352;50.888;4.466;2023-02-22T07:24:49;25.80;;;12.63;;
18445;SDS011;9352;50.888;4.466;2023-02-22T07:27:16;22.63;;;12.00;;
18445;SDS011;9352;50.888;4.466;2023-02-22T07:29:43;23.83;;;12.17;;
18445;SDS011;9352;50.888;4.466;2023-02-22T07:32:10;48.20;;;19.63;;
18445;SDS011;9352;50.888;4.466;2023-02-22T07:34:39;21.60;;;10.97;;
18445;SDS011;9352;50.888;4.466;2023-02-22T07:37:07;29.07;;;11.53;;
18445;SDS011;9352;50.888;4.466;2023-02-22T07:39:34;26.60;;;10.93;;
18445;SDS011;9352;50.888;4.466;2023-02-22T07:42:02;24.10;;;11.53;;
18445;SDS011;9352;50.888;4.466;2023-02-22T07:44:29;29.13;;;11.63;;
18445;SDS011;9352;50.888;4.466;2023-02-22T07:46:56;43.57;;;19.53;;
18445;SDS011;9352;50.888;4.466;2023-02-22T07:49:23;72.17;;;30.87;;
18445;SDS011;9352;50.888;4.466;2023-02-22T07:51:51;27.67;;;12.27;;
18445;SDS011;9352;50.888;4.466;2023-02-22T07:54:18;39.30;;;11.93;;
18445;SDS011;9352;50.888;4.466;2023-02-22T07:56:45;28.07;;;12.43;;
18445;SDS011;9352;50.888;4.466;2023-02-22T07:59:13;37.70;;;12.97;;
18445;SDS011;9352;50.888;4.466;2023-02-22T08:01:40;31.63;;;13.70;;
18445;SDS011;9352;50.888;4.466;2023-02-22T08:04:07;45.83;;;12.50;;
18445;SDS011;9352;50.888;4.466;2023-02-22T08:06:34;27.00;;;11.87;;
18445;SDS011;9352;50.888;4.466;2023-02-22T08:09:02;23.42;;;11.77;;
18445;SDS011;9352;50.888;4.466;2023-02-22T08:11:29;31.03;;;11.80;;
18445;SDS011;9352;50.888;4.466;2023-02-22T08:13:56;25.35;;;12.10;;
18445;SDS011;9352;50.888;4.466;2023-02-22T08:16:23;51.25;;;13.13;;
18445;SDS011;9352;50.888;4.466;2023-02-22T08:18:50;39.63;;;13.48;;
18445;SDS011;9352;50.888;4.466;2023-02-22T08:21:17;33.42;;;12.98;;
18445;SDS011;9352;50.888;4.466;2023-02-22T08:23:44;26.13;;;11.88;;
18445;SDS011;9352;50.888;4.466;2023-02-22T08:26:17;28.58;;;12.52;;
18445;SDS011;9352;50.888;4.466;2023-02-22T08:28:44;27.13;;;11.95;;
18445;SDS011;9352;50.888;4.466;2023-02-22T08:31:11;36.75;;;12.68;;
18445;SDS011;9352;50.888;4.466;2023-02-22T08:33:38;27.67;;;12.02;;
18445;SDS011;9352;50.888;4.466;2023-02-22T08:36:05;24.58;;;11.75;;
18445;SDS011;9352;50.888;4.466;2023-02-22T08:38:33;24.33;;;12.13;;
18445;SDS011;9352;50.888;4.466;2023-02-22T08:41:00;30.10;;;12.27;;
18445;SDS011;9352;50.888;4.466;2023-02-22T08:43:28;24.33;;;12.20;;
18445;SDS011;9352;50.888;4.466;2023-02-22T08:45:55;34.45;;;13.00;;
18445;SDS011;9352;50.888;4.466;2023-02-22T08:48:22;35.17;;;13.43;;
18445;SDS011;9352;50.888;4.466;2023-02-22T08:50:49;38.60;;;14.57;;
18445;SDS011;9352;50.888;4.466;2023-02-22T08:53:16;32.47;;;12.68;;
18445;SDS011;9352;50.888;4.466;2023-02-22T08:55:43;27.15;;;13.02;;
18445;SDS011;9352;50.888;4.466;2023-02-22T08:58:10;28.08;;;12.95;;
18445;SDS011;9352;50.888;4.466;2023-02-22T09:00:39;30.77;;;13.07;;
18445;SDS011;9352;50.888;4.466;2023-02-22T09:03:09;27.90;;;12.30;;
18445;SDS011;9352;50.888;4.466;2023-02-22T09:05:37;23.15;;;11.48;;
18445;SDS011;9352;50.888;4.466;2023-02-22T09:08:04;24.33;;;11.32;;
18445;SDS011;9352;50.888;4.466;2023-02-22T09:10:33;31.85;;;11.25;;
18445;SDS011;9352;50.888;4.466;2023-02-22T09:13:00;29.23;;;12.15;;
18445;SDS011;9352;50.888;4.466;2023-02-22T09:15:28;36.70;;;11.70;;
18445;SDS011;9352;50.888;4.466;2023-02-22T09:17:57;22.90;;;11.20;;
18445;SDS011;9352;50.888;4.466;2023-02-22T09:20:24;21.00;;;11.18;;
18445;SDS011;9352;50.888;4.466;2023-02-22T09:22:52;24.92;;;11.88;;
18445;SDS011;9352;50.888;4.466;2023-02-22T09:25:20;22.17;;;11.25;;
18445;SDS011;9352;50.888;4.466;2023-02-22T09:27:47;23.92;;;12.02;;
18445;SDS011;9352;50.888;4.466;2023-02-22T09:30:16;30.70;;;13.23;;
18445;SDS011;9352;50.888;4.466;2023-02-22T09:32:47;34.72;;;12.63;;
18445;SDS011;9352;50.888;4.466;2023-02-22T09:35:16;29.83;;;12.90;;
18445;SDS011;9352;50.888;4.466;2023-02-22T09:37:43;29.35;;;12.95;;
18445;SDS011;9352;50.888;4.466;2023-02-22T09:40:13;37.60;;;17.42;;
18445;SDS011;9352;50.888;4.466;2023-02-22T09:42:49;22.58;;;13.27;;
18445;SDS011;9352;50.888;4.466;2023-02-22T09:45:22;31.40;;;14.90;;
18445;SDS011;9352;50.888;4.466;2023-02-22T09:47:56;29.00;;;13.95;;
18445;SDS011;9352;50.888;4.466;2023-02-22T09:50:29;29.77;;;14.30;;
18445;SDS011;9352;50.888;4.466;2023-02-22T09:53:01;26.85;;;13.23;;
18445;SDS011;9352;50.888;4.466;2023-02-22T09:55:32;32.65;;;14.25;;
18445;SDS011;9352;50.888;4.466;2023-02-22T09:58:05;23.77;;;13.40;;
18445;SDS011;9352;50.888;4.466;2023-02-22T10:00:39;30.90;;;14.55;;
18445;SDS011;9352;50.888;4.466;2023-02-22T10:03:14;35.28;;;15.88;;
18445;SDS011;9352;50.888;4.466;2023-02-22T10:05:51;32.08;;;15.25;;
18445;SDS011;9352;50.888;4.466;2023-02-22T10:08:32;30.45;;;14.52;;
18445;SDS011;9352;50.888;4.466;2023-02-22T10:11:03;28.77;;;14.32;;
18445;SDS011;9352;50.888;4.466;2023-02-22T10:13:43;28.85;;;14.68;;
18445;SDS011;9352;50.888;4.466;2023-02-22T10:16:19;27.10;;;14.13;;
18445;SDS011;9352;50.888;4.466;2023-02-22T10:19:12;29.45;;;13.98;;
18445;SDS011;9352;50.888;4.466;2023-02-22T10:21:54;28.10;;;13.93;;
18445;SDS011;9352;50.888;4.466;2023-02-22T10:24:44;31.30;;;15.15;;
18445;SDS011;9352;50.888;4.466;2023-02-22T10:27:20;27.65;;;14.23;;
18445;SDS011;9352;50.888;4.466;2023-02-22T10:29:54;32.42;;;15.10;;
18445;SDS011;9352;50.888;4.466;2023-02-22T10:32:30;31.20;;;15.38;;
18445;SDS011;9352;50.888;4.466;2023-02-22T10:35:05;27.73;;;14.95;;
18445;SDS011;9352;50.888;4.466;2023-02-22T10:37:43;29.70;;;14.98;;
18445;SDS011;9352;50.888;4.466;2023-02-22T10:40:13;36.03;;;15.63;;
18445;SDS011;9352;50.888;4.466;2023-02-22T10:42:42;35.78;;;15.63;;
18445;SDS011;9352;50.888;4.466;2023-02-22T10:45:16;24.13;;;15.00;;
18445;SDS011;9352;50.888;4.466;2023-02-22T10:47:46;28.00;;;15.05;;
18445;SDS011;9352;50.888;4.466;2023-02-22T10:50:15;27.13;;;16.27;;
18445;SDS011;9352;50.888;4.466;2023-02-22T10:52:46;29.05;;;15.00;;
18445;SDS011;9352;50.888;4.466;2023-02-22T10:55:13;31.92;;;15.27;;
18445;SDS011;9352;50.888;4.466;2023-02-22T10:57:42;27.63;;;15.60;;
18445;SDS011;9352;50.888;4.466;2023-02-22T11:00:13;29.77;;;15.90;;
18445;SDS011;9352;50.888;4.466;2023-02-22T11:02:49;28.92;;;16.33;;
18445;SDS011;9352;50.888;4.466;2023-02-22T11:05:28;33.38;;;16.52;;
18445;SDS011;9352;50.888;4.466;2023-02-22T11:08:14;35.38;;;17.23;;
18445;SDS011;9352;50.888;4.466;2023-02-22T11:10:48;32.45;;;16.92;;
18445;SDS011;9352;50.888;4.466;2023-02-22T11:13:16;31.95;;;17.77;;
18445;SDS011;9352;50.888;4.466;2023-02-22T11:15:49;34.60;;;18.20;;
18445;SDS011;9352;50.888;4.466;2023-02-22T11:18:21;35.38;;;17.15;;
18445;SDS011;9352;50.888;4.466;2023-02-22T11:21:01;34.88;;;18.35;;
18445;SDS011;9352;50.888;4.466;2023-02-22T11:23:33;39.45;;;19.20;;
18445;SDS011;9352;50.888;4.466;2023-02-22T11:26:02;32.15;;;18.23;;
18445;SDS011;9352;50.888;4.466;2023-02-22T11:28:35;35.38;;;19.00;;
18445;SDS011;9352;50.888;4.466;2023-02-22T11:31:13;38.75;;;19.10;;
18445;SDS011;9352;50.888;4.466;2023-02-22T11:33:45;33.95;;;18.63;;
18445;SDS011;9352;50.888;4.466;2023-02-22T11:36:28;34.60;;;18.52;;
18445;SDS011;9352;50.888;4.466;2023-02-22T11:38:58;32.58;;;18.13;;
18445;SDS011;9352;50.888;4.466;2023-02-22T11:41:29;35.85;;;18.80;;
18445;SDS011;9352;50.888;4.466;2023-02-22T11:44:11;40.67;;;18.75;;
18445;SDS011;9352;50.888;4.466;2023-02-22T11:46:40;32.53;;;18.15;;
18445;SDS011;9352;50.888;4.466;2023-02-22T11:49:09;34.28;;;19.83;;
18445;SDS011;9352;50.888;4.466;2023-02-22T11:51:41;31.88;;;18.40;;
18445;SDS011;9352;50.888;4.466;2023-02-22T11:54:27;33.78;;;19.23;;
18445;SDS011;9352;50.888;4.466;2023-02-22T11:57:18;33.95;;;19.48;;
18445;SDS011;9352;50.888;4.466;2023-02-22T11:59:59;33.90;;;18.92;;
18445;SDS011;9352;50.888;4.466;2023-02-22T12:02:42;35.38;;;19.55;;
18445;SDS011;9352;50.888;4.466;2023-02-22T12:05:22;35.28;;;19.35;;
18445;SDS011;9352;50.888;4.466;2023-02-22T12:08:04;41.08;;;19.88;;
18445;SDS011;9352;50.888;4.466;2023-02-22T12:10:48;37.17;;;19.75;;
18445;SDS011;9352;50.888;4.466;2023-02-22T12:13:33;32.72;;;20.00;;
18445;SDS011;9352;50.888;4.466;2023-02-22T12:16:12;39.22;;;20.50;;
18445;SDS011;9352;50.888;4.466;2023-02-22T12:18:49;37.55;;;20.88;;
18445;SDS011;9352;50.888;4.466;2023-02-22T12:21:34;40.83;;;21.52;;
18445;SDS011;9352;50.888;4.466;2023-02-22T12:24:05;40.40;;;20.30;;
18445;SDS011;9352;50.888;4.466;2023-02-22T12:26:40;36.35;;;21.02;;
18445;SDS011;9352;50.888;4.466;2023-02-22T12:29:11;39.00;;;20.75;;
18445;SDS011;9352;50.888;4.466;2023-02-22T12:31:44;39.95;;;21.52;;
18445;SDS011;9352;50.888;4.466;2023-02-22T12:34:16;38.83;;;22.30;;
18445;SDS011;9352;50.888;4.466;2023-02-22T12:36:52;38.15;;;22.63;;
18445;SDS011;9352;50.888;4.466;2023-02-22T12:39:26;54.05;;;25.02;;
18445;SDS011;9352;50.888;4.466;2023-02-22T12:42:04;44.28;;;24.63;;
18445;SDS011;9352;50.888;4.466;2023-02-22T12:44:39;46.72;;;25.17;;
18445;SDS011;9352;50.888;4.466;2023-02-22T12:47:13;46.15;;;25.27;;
18445;SDS011;9352;50.888;4.466;2023-02-22T12:49:46;46.45;;;25.45;;
18445;SDS011;9352;50.888;4.466;2023-02-22T12:52:20;42.22;;;25.02;;
18445;SDS011;9352;50.888;4.466;2023-02-22T12:55:00;42.67;;;24.60;;
18445;SDS011;9352;50.888;4.466;2023-02-22T12:57:36;44.58;;;22.50;;
18445;SDS011;9352;50.888;4.466;2023-02-22T13:00:09;45.92;;;22.85;;
18445;SDS011;9352;50.888;4.466;2023-02-22T13:02:49;46.85;;;24.10;;
18445;SDS011;9352;50.888;4.466;2023-02-22T13:05:22;40.45;;;23.38;;
18445;SDS011;9352;50.888;4.466;2023-02-22T13:07:53;41.90;;;24.45;;
18445;SDS011;9352;50.888;4.466;2023-02-22T13:10:53;42.65;;;23.30;;
18445;SDS011;9352;50.888;4.466;2023-02-22T13:13:36;38.20;;;22.45;;
18445;SDS011;9352;50.888;4.466;2023-02-22T13:16:15;38.45;;;23.48;;
18445;SDS011;9352;50.888;4.466;2023-02-22T13:18:54;51.00;;;22.88;;
18445;SDS011;9352;50.888;4.466;2023-02-22T13:21:28;71.20;;;24.33;;
18445;SDS011;9352;50.888;4.466;2023-02-22T13:24:02;40.90;;;23.88;;
18445;SDS011;9352;50.888;4.466;2023-02-22T13:26:43;47.40;;;24.08;;
18445;SDS011;9352;50.888;4.466;2023-02-22T13:29:16;45.80;;;23.80;;
18445;SDS011;9352;50.888;4.466;2023-02-22T13:34:50;40.80;;;24.90;;
18445;SDS011;9352;50.888;4.466;2023-02-22T13:37:40;51.15;;;24.30;;
18445;SDS011;9352;50.888;4.466;2023-02-22T13:49:21;41.80;;;24.70;;
18445;SDS011;9352;50.888;4.466;2023-02-22T13:51:58;42.95;;;23.90;;
18445;SDS011;9352;50.888;4.466;2023-02-22T13:54:27;46.53;;;24.63;;
18445;SDS011;9352;50.888;4.466;2023-02-22T13:57:00;46.70;;;26.25;;
18445;SDS011;9352;50.888;4.466;2023-02-22T13:59:29;41.85;;;24.80;;
18445;SDS011;9352;50.888;4.466;2023-02-22T14:01:59;49.13;;;26.65;;
18445;SDS011;9352;50.888;4.466;2023-02-22T14:04:32;41.55;;;24.52;;
18445;SDS011;9352;50.888;4.466;2023-02-22T14:10:35;47.83;;;27.00;;
18445;SDS011;9352;50.888;4.466;2023-02-22T14:13:05;48.58;;;24.80;;
18445;SDS011;9352;50.888;4.466;2023-02-22T14:15:32;44.20;;;26.10;;
18445;SDS011;9352;50.888;4.466;2023-02-22T14:18:02;51.35;;;27.20;;
18445;SDS011;9352;50.888;4.466;2023-02-22T14:20:31;46.50;;;25.90;;
18445;SDS011;9352;50.888;4.466;2023-02-22T14:26:07;48.88;;;27.15;;
18445;SDS011;9352;50.888;4.466;2023-02-22T14:28:38;55.78;;;27.08;;
18445;SDS011;9352;50.888;4.466;2023-02-22T14:31:13;61.13;;;28.38;;
18445;SDS011;9352;50.888;4.466;2023-02-22T14:33:50;48.83;;;27.27;;
18445;SDS011;9352;50.888;4.466;2023-02-22T14:36:20;46.33;;;27.83;;
18445;SDS011;9352;50.888;4.466;2023-02-22T14:38:49;50.20;;;28.15;;
18445;SDS011;9352;50.888;4.466;2023-02-22T14:41:18;53.60;;;29.02;;
18445;SDS011;9352;50.888;4.466;2023-02-22T14:43:50;48.92;;;28.40;;
18445;SDS011;9352;50.888;4.466;2023-02-22T14:46:20;52.47;;;28.85;;
18445;SDS011;9352;50.888;4.466;2023-02-22T14:48:53;51.00;;;28.25;;
18445;SDS011;9352;50.888;4.466;2023-02-22T14:51:26;55.70;;;30.15;;
18445;SDS011;9352;50.888;4.466;2023-02-22T14:53:57;58.78;;;29.67;;
18445;SDS011;9352;50.888;4.466;2023-02-22T14:56:30;56.78;;;30.63;;
18445;SDS011;9352;50.888;4.466;2023-02-22T14:59:10;55.40;;;29.77;;
18445;SDS011;9352;50.888;4.466;2023-02-22T15:01:41;59.35;;;30.92;;
18445;SDS011;9352;50.888;4.466;2023-02-22T15:04:20;61.33;;;31.27;;
18445;SDS011;9352;50.888;4.466;2023-02-22T15:06:49;58.05;;;31.70;;
18445;SDS011;9352;50.888;4.466;2023-02-22T15:09:17;59.53;;;32.53;;
18445;SDS011;9352;50.888;4.466;2023-02-22T15:11:49;64.07;;;31.88;;
18445;SDS011;9352;50.888;4.466;2023-02-22T15:14:18;62.92;;;32.78;;
18445;SDS011;9352;50.888;4.466;2023-02-22T15:16:47;59.97;;;31.52;;